createdAt,value
2023-04-25T00:01:44.281Z,10.88
2023-04-25T00:06:47.490Z,10.63
2023-04-25T00:11:50.631Z,10.75
2023-04-25T00:16:55.163Z,10.96
2023-04-25T00:21:58.403Z,10.93
2023-04-25T00:27:01.202Z,10.67
2023-04-25T00:32:05.611Z,10.91
2023-04-25T00:37:08.496Z,10.75
2023-04-25T00:42:12.085Z,11.28
2023-04-25T00:47:17.610Z,10.51
2023-04-25T00:52:20.432Z,10.66
2023-04-25T00:57:23.201Z,10.69
2023-04-25T01:02:28.424Z,10.76
2023-04-25T01:07:31.521Z,10.95
2023-04-25T01:12:34.668Z,10.57
2023-04-25T01:17:40.352Z,10.42
2023-04-25T01:22:44.930Z,10.28
2023-04-25T01:27:48.585Z,10.36
2023-04-25T01:32:52.443Z,10.30
2023-04-25T01:37:56.646Z,10.32
2023-04-25T01:42:59.562Z,10.30
2023-04-25T01:48:02.754Z,10.06
2023-04-25T01:53:07.254Z,10.20
2023-04-25T01:58:13.230Z,10.32
2023-04-25T02:03:34.765Z,10.13
2023-04-25T02:08:40.899Z,10.02
2023-04-25T02:13:43.811Z,10.03
2023-04-25T02:19:01.139Z,10.01
2023-04-25T02:24:06.026Z,9.92
2023-04-25T02:29:10.982Z,10.00
2023-04-25T02:34:13.703Z,9.86
2023-04-25T02:39:18.016Z,9.71
2023-04-25T02:44:21.033Z,9.80
2023-04-25T02:49:23.801Z,9.91
2023-04-25T02:54:30.050Z,9.61
2023-04-25T02:59:34.068Z,9.53
2023-04-25T03:04:36.930Z,9.76
2023-04-25T03:09:41.061Z,10.09
2023-04-25T03:14:44.401Z,9.82
2023-04-25T03:19:47.336Z,9.39
2023-04-25T03:24:52.149Z,8.98
2023-04-25T03:29:56.255Z,9.08
2023-04-25T03:34:59.262Z,8.62
2023-04-25T03:40:06.092Z,8.77
2023-04-25T03:45:28.924Z,8.47
2023-04-25T03:50:31.792Z,9.12
2023-04-25T03:55:36.091Z,8.93
2023-04-25T04:00:40.200Z,9.02
2023-04-25T04:05:43.337Z,8.97
2023-04-25T04:10:47.743Z,9.34
2023-04-25T04:15:51.674Z,8.81
2023-04-25T04:20:54.732Z,9.08
2023-04-25T04:25:59.032Z,8.84
2023-04-25T04:31:37.173Z,9.03
2023-04-25T04:36:40.999Z,9.27
2023-04-25T04:41:45.296Z,9.33
2023-04-25T04:47:07.377Z,9.34
2023-04-25T04:52:45.531Z,9.43
2023-04-25T04:58:08.060Z,9.89
2023-04-25T05:03:35.583Z,9.29
2023-04-25T05:08:48.346Z,9.25
2023-04-25T05:14:22.788Z,8.89
2023-04-25T05:19:41.410Z,9.01
2023-04-25T05:24:56.167Z,9.27
2023-04-25T05:30:19.349Z,9.31
2023-04-25T05:35:45.022Z,9.65
2023-04-25T05:40:48.300Z,9.95
2023-04-25T05:46:10.144Z,9.75
2023-04-25T05:51:30.601Z,10.13
2023-04-25T05:57:08.814Z,10.44
2023-04-25T06:02:13.594Z,10.51
2023-04-25T06:07:16.948Z,10.40
2023-04-25T06:12:19.943Z,11.43
2023-04-25T06:17:25.769Z,10.65
2023-04-25T06:22:28.921Z,11.32
2023-04-25T06:27:34.768Z,10.88
2023-04-25T06:32:40.479Z,10.45
2023-04-25T06:37:43.344Z,10.04
2023-04-25T06:42:46.260Z,10.07
2023-04-25T06:48:14.568Z,10.56
2023-04-25T06:53:17.425Z,12.03
2023-04-25T06:58:23.743Z,11.64
2023-04-25T07:03:38.419Z,11.59
2023-04-25T07:08:46.049Z,11.82
2023-04-25T07:13:48.989Z,12.65
2023-04-25T07:18:53.330Z,12.89
2023-04-25T07:23:56.244Z,12.33
2023-04-25T07:29:04.318Z,12.07
2023-04-25T07:34:08.585Z,11.28
2023-04-25T07:39:14.209Z,11.23
2023-04-25T07:44:17.545Z,11.66
2023-04-25T07:49:22.288Z,12.87
2023-04-25T07:54:26.194Z,12.68
2023-04-25T07:59:35.696Z,13.75
2023-04-25T08:04:41.721Z,15.38
2023-04-25T08:09:46.384Z,15.16
2023-04-25T08:14:58.503Z,14.16
2023-04-25T08:20:07.469Z,13.52
2023-04-25T08:25:11.139Z,13.09
2023-04-25T08:30:16.010Z,12.73
2023-04-25T08:35:21.723Z,13.25
2023-04-25T08:40:31.048Z,13.25
2023-04-25T08:45:41.528Z,13.24
2023-04-25T08:50:51.413Z,12.06
2023-04-25T08:55:56.909Z,12.25
2023-04-25T09:01:01.064Z,11.75
2023-04-25T09:06:10.479Z,12.25
2023-04-25T09:11:15.318Z,11.94
2023-04-25T09:16:22.581Z,11.58
2023-04-25T09:21:46.632Z,11.81
2023-04-25T09:26:50.414Z,13.11
2023-04-25T09:31:53.360Z,12.89
2023-04-25T09:36:57.971Z,13.40
2023-04-25T09:42:24.833Z,11.63
2023-04-25T09:47:29.426Z,11.77
2023-04-25T09:52:34.216Z,11.55
2023-04-25T09:57:54.432Z,11.96
2023-04-25T10:02:59.434Z,12.75
2023-04-25T10:08:26.079Z,12.82
2023-04-25T10:13:30.640Z,13.38
2023-04-25T10:18:34.653Z,12.69
2023-04-25T10:23:39.829Z,13.24
2023-04-25T10:29:00.818Z,12.82
2023-04-25T10:34:03.806Z,12.78
2023-04-25T10:39:10.109Z,12.96
2023-04-25T10:44:12.837Z,13.33
2023-04-25T10:49:32.873Z,12.73
2023-04-25T10:54:37.107Z,13.36
2023-04-25T10:59:41.968Z,13.96
2023-04-25T11:04:44.852Z,13.53
2023-04-25T11:09:49.185Z,14.04
2023-04-25T11:14:52.875Z,13.67
2023-04-25T11:19:56.860Z,14.10
2023-04-25T11:25:09.268Z,13.81
2023-04-25T11:30:13.845Z,13.64
2023-04-25T11:35:17.569Z,10.46
2023-04-25T11:40:22.039Z,10.42
2023-04-25T11:45:25.743Z,10.99
2023-04-25T11:50:30.387Z,11.08
2023-04-25T11:55:34.538Z,10.93
2023-04-25T12:00:37.335Z,11.26
2023-04-25T12:05:41.196Z,12.12
2023-04-25T12:10:47.829Z,13.22
2023-04-25T12:15:50.916Z,13.73
2023-04-25T12:20:54.724Z,13.67
2023-04-25T12:25:59.007Z,13.93
2023-04-25T12:31:04.270Z,12.95
2023-04-25T12:36:10.190Z,12.62
2023-04-25T12:41:14.444Z,12.70
2023-04-25T12:46:17.360Z,13.46
2023-04-25T12:51:21.141Z,13.62
2023-04-25T12:56:25.841Z,12.79
2023-04-25T13:01:28.847Z,12.60
2023-04-25T13:06:34.735Z,13.09
2023-04-25T13:11:38.953Z,13.60
2023-04-25T13:16:42.233Z,12.03
2023-04-25T13:21:45.168Z,10.41
2023-04-25T13:26:49.415Z,11.09
2023-04-25T13:31:52.261Z,11.40
2023-04-25T13:36:56.014Z,11.45
2023-04-25T13:42:01.143Z,11.96
2023-04-25T13:47:04.232Z,12.10
2023-04-25T13:52:07.262Z,10.39
2023-04-25T13:57:12.107Z,9.47
2023-04-25T14:02:15.198Z,9.92
2023-04-25T14:07:18.845Z,10.40
2023-04-25T14:12:23.076Z,11.55
2023-04-25T14:17:25.890Z,11.78
2023-04-25T14:22:28.659Z,11.23
2023-04-25T14:27:33.212Z,11.68
2023-04-25T14:32:36.102Z,11.16
2023-04-25T14:37:39.212Z,11.64
2023-04-25T14:42:43.374Z,11.91
2023-04-25T14:47:46.927Z,12.18
2023-04-25T14:52:49.809Z,12.04
2023-04-25T14:57:57.313Z,12.69
2023-04-25T15:03:00.848Z,12.44
2023-04-25T15:08:04.302Z,12.37
2023-04-25T15:13:08.701Z,11.37
2023-04-25T15:18:11.488Z,10.79
2023-04-25T15:23:15.406Z,10.72
2023-04-25T15:28:19.852Z,11.22
2023-04-25T15:33:22.658Z,11.97
2023-04-25T15:38:25.542Z,11.39
2023-04-25T15:43:29.801Z,11.85
2023-04-25T15:48:33.232Z,11.88
2023-04-25T15:53:36.017Z,11.50
2023-04-25T15:58:41.307Z,11.50
2023-04-25T16:03:44.396Z,10.83
2023-04-25T16:08:47.264Z,11.94
2023-04-25T16:13:51.666Z,11.00
2023-04-25T16:18:54.588Z,10.84
2023-04-25T16:23:57.384Z,10.87
2023-04-25T16:29:04.256Z,10.48
2023-04-25T16:34:07.259Z,10.75
2023-04-25T16:39:10.084Z,10.88
2023-04-25T16:44:14.291Z,10.87
2023-04-25T16:49:17.126Z,10.72
2023-04-25T16:54:19.927Z,11.37
2023-04-25T16:59:24.053Z,11.21
2023-04-25T17:04:27.443Z,11.03
2023-04-25T17:09:30.627Z,11.15
2023-04-25T17:14:37.778Z,11.01
2023-04-25T17:19:41.230Z,10.73
2023-04-25T17:24:45.224Z,10.55
2023-04-25T17:29:49.467Z,10.70
2023-04-25T17:34:52.269Z,10.88
2023-04-25T17:39:55.879Z,11.10
2023-04-25T17:45:00.024Z,10.90
2023-04-25T17:50:03.251Z,10.61
2023-04-25T17:55:07.286Z,10.30
2023-04-25T18:00:13.060Z,10.53
2023-04-25T18:05:16.632Z,9.85
2023-04-25T18:10:19.738Z,9.96
2023-04-25T18:15:25.011Z,9.59
2023-04-25T18:20:28.633Z,9.09
2023-04-25T18:25:34.002Z,8.95
2023-04-25T18:30:38.836Z,8.87
2023-04-25T18:35:51.459Z,8.67
2023-04-25T18:41:18.162Z,8.80
2023-04-25T18:46:25.641Z,8.47
2023-04-25T18:51:31.397Z,8.53
2023-04-25T18:56:34.287Z,8.55
2023-04-25T19:01:38.406Z,8.66
2023-04-25T19:06:41.267Z,8.68
2023-04-25T19:11:44.108Z,8.72
2023-04-25T19:16:48.383Z,8.38
2023-04-25T19:21:52.463Z,8.52
2023-04-25T19:26:55.324Z,8.31
2023-04-25T19:31:59.738Z,8.43
2023-04-25T19:37:04.944Z,8.60
2023-04-25T19:42:07.825Z,8.45
2023-04-25T19:47:12.196Z,8.36
2023-04-25T19:52:16.269Z,8.35
2023-04-25T19:57:19.071Z,8.25
2023-04-25T20:02:23.332Z,8.23
2023-04-25T20:07:26.614Z,8.29
2023-04-25T20:12:29.433Z,7.99
2023-04-25T20:17:33.777Z,8.14
2023-04-25T20:22:38.682Z,8.06
2023-04-25T20:27:41.502Z,8.27
2023-04-25T20:32:45.653Z,8.13
2023-04-25T20:37:48.446Z,8.23
2023-04-25T20:42:52.268Z,8.01
2023-04-25T20:47:56.802Z,7.96
2023-04-25T20:52:59.628Z,7.95
2023-04-25T20:58:03.212Z,7.65
2023-04-25T21:03:07.907Z,7.92
2023-04-25T21:08:10.887Z,7.80
2023-04-25T21:13:13.823Z,7.95
2023-04-25T21:18:21.271Z,7.61
2023-04-25T21:23:24.104Z,7.50
2023-04-25T21:28:27.191Z,7.70
2023-04-25T21:33:31.674Z,7.77
2023-04-25T21:38:34.737Z,7.54
2023-04-25T21:43:37.739Z,7.69
2023-04-25T21:48:44.107Z,7.75
2023-04-25T21:53:46.931Z,7.21
2023-04-25T21:58:50.411Z,7.72
2023-04-25T22:03:55.103Z,7.59
2023-04-25T22:08:58.158Z,7.21
2023-04-25T22:14:01.165Z,7.76
2023-04-25T22:19:07.886Z,7.25
2023-04-25T22:24:10.769Z,7.23
2023-04-25T22:29:13.611Z,7.28
2023-04-25T22:34:18.107Z,7.34
2023-04-25T22:39:20.922Z,7.75
2023-04-25T22:44:23.699Z,7.59
2023-04-25T22:49:27.955Z,7.66
2023-04-25T22:54:30.869Z,7.64
2023-04-25T22:59:36.152Z,7.60
2023-04-25T23:04:40.436Z,7.15
2023-04-25T23:09:45.104Z,7.35
2023-04-25T23:14:52.812Z,7.75
2023-04-25T23:19:57.060Z,7.37
2023-04-25T23:25:00.024Z,7.08
2023-04-25T23:30:02.831Z,7.15
2023-04-25T23:35:08.213Z,6.95
2023-04-25T23:40:12.267Z,7.28
2023-04-25T23:45:16.538Z,7.45
2023-04-25T23:50:20.847Z,7.33
2023-04-25T23:55:23.609Z,7.48
